sensor_id;sensor_type;location;lat;lon;timestamp;P1;durP1;ratioP1;P2;durP2;ratioP2
48487;SDS011;34289;48.572;13.378;2023-04-06T00:01:36;6.13;;;3.47;;
48487;SDS011;34289;48.572;13.378;2023-04-06T00:04:02;8.23;;;3.95;;
48487;SDS011;34289;48.572;13.378;2023-04-06T00:06:28;5.65;;;3.60;;
48487;SDS011;34289;48.572;13.378;2023-04-06T00:08:55;5.35;;;3.80;;
48487;SDS011;34289;48.572;13.378;2023-04-06T00:11:21;5.57;;;3.92;;
48487;SDS011;34289;48.572;13.378;2023-04-06T00:13:47;7.03;;;4.15;;
48487;SDS011;34289;48.572;13.378;2023-04-06T00:16:13;7.47;;;3.70;;
48487;SDS011;34289;48.572;13.378;2023-04-06T00:18:40;7.90;;;4.15;;
48487;SDS011;34289;48.572;13.378;2023-04-06T00:21:06;5.22;;;3.60;;
48487;SDS011;34289;48.572;13.378;2023-04-06T00:23:32;8.43;;;3.88;;
48487;SDS011;34289;48.572;13.378;2023-04-06T00:25:58;5.13;;;3.72;;
48487;SDS011;34289;48.572;13.378;2023-04-06T00:28:25;5.70;;;3.83;;
48487;SDS011;34289;48.572;13.378;2023-04-06T00:30:52;6.30;;;3.67;;
48487;SDS011;34289;48.572;13.378;2023-04-06T00:33:20;4.82;;;3.70;;
48487;SDS011;34289;48.572;13.378;2023-04-06T00:35:46;11.18;;;4.50;;
48487;SDS011;34289;48.572;13.378;2023-04-06T00:38:12;4.72;;;3.72;;
48487;SDS011;34289;48.572;13.378;2023-04-06T00:40:37;6.40;;;4.43;;
48487;SDS011;34289;48.572;13.378;2023-04-06T00:43:05;4.97;;;4.03;;
48487;SDS011;34289;48.572;13.378;2023-04-06T00:45:31;5.07;;;3.65;;
48487;SDS011;34289;48.572;13.378;2023-04-06T00:47:57;5.82;;;3.90;;
48487;SDS011;34289;48.572;13.378;2023-04-06T00:50:23;7.20;;;4.50;;
48487;SDS011;34289;48.572;13.378;2023-04-06T00:52:50;5.35;;;3.95;;
48487;SDS011;34289;48.572;13.378;2023-04-06T00:55:16;9.63;;;3.20;;
48487;SDS011;34289;48.572;13.378;2023-04-06T00:57:42;6.95;;;3.80;;
48487;SDS011;34289;48.572;13.378;2023-04-06T01:00:08;5.13;;;3.92;;
48487;SDS011;34289;48.572;13.378;2023-04-06T01:02:35;6.70;;;4.30;;
48487;SDS011;34289;48.572;13.378;2023-04-06T01:05:01;11.05;;;4.20;;
48487;SDS011;34289;48.572;13.378;2023-04-06T01:07:27;4.10;;;3.70;;
48487;SDS011;34289;48.572;13.378;2023-04-06T01:09:53;6.15;;;4.78;;
48487;SDS011;34289;48.572;13.378;2023-04-06T01:12:19;6.13;;;3.58;;
48487;SDS011;34289;48.572;13.378;2023-04-06T01:14:45;5.40;;;3.85;;
48487;SDS011;34289;48.572;13.378;2023-04-06T01:17:11;5.55;;;4.18;;
48487;SDS011;34289;48.572;13.378;2023-04-06T01:19:37;6.82;;;4.40;;
48487;SDS011;34289;48.572;13.378;2023-04-06T01:22:05;8.13;;;4.15;;
48487;SDS011;34289;48.572;13.378;2023-04-06T01:24:31;5.60;;;3.80;;
48487;SDS011;34289;48.572;13.378;2023-04-06T01:26:57;4.03;;;3.63;;
48487;SDS011;34289;48.572;13.378;2023-04-06T01:29:23;6.10;;;4.38;;
48487;SDS011;34289;48.572;13.378;2023-04-06T01:31:49;5.30;;;3.88;;
48487;SDS011;34289;48.572;13.378;2023-04-06T01:34:15;4.90;;;3.83;;
48487;SDS011;34289;48.572;13.378;2023-04-06T01:36:41;6.00;;;3.60;;
48487;SDS011;34289;48.572;13.378;2023-04-06T01:39:08;5.70;;;3.88;;
48487;SDS011;34289;48.572;13.378;2023-04-06T01:41:33;6.28;;;4.15;;
48487;SDS011;34289;48.572;13.378;2023-04-06T01:43:59;6.43;;;4.30;;
48487;SDS011;34289;48.572;13.378;2023-04-06T01:46:25;6.47;;;4.55;;
48487;SDS011;34289;48.572;13.378;2023-04-06T01:48:51;5.72;;;4.28;;
48487;SDS011;34289;48.572;13.378;2023-04-06T01:51:17;6.72;;;4.05;;
48487;SDS011;34289;48.572;13.378;2023-04-06T01:53:42;5.10;;;3.55;;
48487;SDS011;34289;48.572;13.378;2023-04-06T01:56:09;5.63;;;3.88;;
48487;SDS011;34289;48.572;13.378;2023-04-06T01:58:35;7.22;;;4.10;;
48487;SDS011;34289;48.572;13.378;2023-04-06T02:01:00;5.38;;;3.40;;
48487;SDS011;34289;48.572;13.378;2023-04-06T02:03:27;8.35;;;4.65;;
48487;SDS011;34289;48.572;13.378;2023-04-06T02:05:53;6.50;;;3.63;;
48487;SDS011;34289;48.572;13.378;2023-04-06T02:08:19;6.90;;;3.55;;
48487;SDS011;34289;48.572;13.378;2023-04-06T02:10:45;4.30;;;3.75;;
48487;SDS011;34289;48.572;13.378;2023-04-06T02:13:11;4.20;;;3.63;;
48487;SDS011;34289;48.572;13.378;2023-04-06T02:15:37;6.15;;;3.40;;
48487;SDS011;34289;48.572;13.378;2023-04-06T02:18:03;4.22;;;3.45;;
48487;SDS011;34289;48.572;13.378;2023-04-06T02:20:29;7.28;;;4.00;;
48487;SDS011;34289;48.572;13.378;2023-04-06T02:22:56;6.07;;;3.70;;
48487;SDS011;34289;48.572;13.378;2023-04-06T02:25:23;6.03;;;4.25;;
48487;SDS011;34289;48.572;13.378;2023-04-06T02:27:50;5.97;;;4.68;;
48487;SDS011;34289;48.572;13.378;2023-04-06T02:30:16;8.07;;;4.00;;
48487;SDS011;34289;48.572;13.378;2023-04-06T02:32:42;4.85;;;3.90;;
48487;SDS011;34289;48.572;13.378;2023-04-06T02:35:08;7.13;;;3.90;;
48487;SDS011;34289;48.572;13.378;2023-04-06T02:37:33;6.55;;;4.60;;
48487;SDS011;34289;48.572;13.378;2023-04-06T02:40:00;8.90;;;4.50;;
48487;SDS011;34289;48.572;13.378;2023-04-06T02:42:26;9.40;;;4.68;;
48487;SDS011;34289;48.572;13.378;2023-04-06T02:44:52;6.15;;;4.35;;
48487;SDS011;34289;48.572;13.378;2023-04-06T02:47:18;6.78;;;4.85;;
48487;SDS011;34289;48.572;13.378;2023-04-06T02:49:44;7.93;;;4.38;;
48487;SDS011;34289;48.572;13.378;2023-04-06T02:52:10;5.70;;;3.83;;
48487;SDS011;34289;48.572;13.378;2023-04-06T02:54:36;7.07;;;4.32;;
48487;SDS011;34289;48.572;13.378;2023-04-06T02:57:02;5.15;;;3.78;;
48487;SDS011;34289;48.572;13.378;2023-04-06T02:59:28;5.53;;;4.20;;
48487;SDS011;34289;48.572;13.378;2023-04-06T03:01:54;5.35;;;4.35;;
48487;SDS011;34289;48.572;13.378;2023-04-06T03:04:20;9.93;;;4.43;;
48487;SDS011;34289;48.572;13.378;2023-04-06T03:06:50;4.70;;;4.07;;
48487;SDS011;34289;48.572;13.378;2023-04-06T03:09:16;5.97;;;3.78;;
48487;SDS011;34289;48.572;13.378;2023-04-06T03:11:42;5.60;;;4.18;;
48487;SDS011;34289;48.572;13.378;2023-04-06T03:14:08;5.78;;;4.38;;
48487;SDS011;34289;48.572;13.378;2023-04-06T03:16:33;7.63;;;4.20;;
48487;SDS011;34289;48.572;13.378;2023-04-06T03:18:59;6.03;;;4.55;;
48487;SDS011;34289;48.572;13.378;2023-04-06T03:21:25;5.05;;;4.55;;
48487;SDS011;34289;48.572;13.378;2023-04-06T03:23:51;7.32;;;4.57;;
48487;SDS011;34289;48.572;13.378;2023-04-06T03:26:17;6.32;;;4.60;;
48487;SDS011;34289;48.572;13.378;2023-04-06T03:28:43;5.50;;;4.55;;
48487;SDS011;34289;48.572;13.378;2023-04-06T03:31:09;7.53;;;4.72;;
48487;SDS011;34289;48.572;13.378;2023-04-06T03:33:35;5.97;;;4.38;;
48487;SDS011;34289;48.572;13.378;2023-04-06T03:36:01;7.93;;;4.30;;
48487;SDS011;34289;48.572;13.378;2023-04-06T03:38:27;4.88;;;4.35;;
48487;SDS011;34289;48.572;13.378;2023-04-06T03:40:53;8.57;;;5.35;;
48487;SDS011;34289;48.572;13.378;2023-04-06T03:43:19;6.97;;;4.50;;
48487;SDS011;34289;48.572;13.378;2023-04-06T03:45:45;6.00;;;4.32;;
48487;SDS011;34289;48.572;13.378;2023-04-06T03:48:11;5.72;;;4.43;;
48487;SDS011;34289;48.572;13.378;2023-04-06T03:50:37;6.57;;;4.80;;
48487;SDS011;34289;48.572;13.378;2023-04-06T03:53:03;6.75;;;5.18;;
48487;SDS011;34289;48.572;13.378;2023-04-06T03:55:29;6.85;;;4.60;;
48487;SDS011;34289;48.572;13.378;2023-04-06T03:57:55;8.00;;;4.75;;
48487;SDS011;34289;48.572;13.378;2023-04-06T04:00:21;12.05;;;5.00;;
48487;SDS011;34289;48.572;13.378;2023-04-06T04:02:46;6.97;;;4.80;;
48487;SDS011;34289;48.572;13.378;2023-04-06T04:05:12;6.43;;;4.78;;
48487;SDS011;34289;48.572;13.378;2023-04-06T04:07:38;4.88;;;3.72;;
48487;SDS011;34289;48.572;13.378;2023-04-06T04:10:04;7.35;;;4.57;;
48487;SDS011;34289;48.572;13.378;2023-04-06T04:12:30;5.95;;;4.65;;
48487;SDS011;34289;48.572;13.378;2023-04-06T04:14:56;7.18;;;4.80;;
48487;SDS011;34289;48.572;13.378;2023-04-06T04:17:22;8.68;;;6.00;;
48487;SDS011;34289;48.572;13.378;2023-04-06T04:19:48;7.65;;;5.30;;
48487;SDS011;34289;48.572;13.378;2023-04-06T04:22:14;6.72;;;4.75;;
48487;SDS011;34289;48.572;13.378;2023-04-06T04:24:40;7.00;;;4.43;;
48487;SDS011;34289;48.572;13.378;2023-04-06T04:27:06;5.60;;;4.55;;
48487;SDS011;34289;48.572;13.378;2023-04-06T04:29:32;6.22;;;4.60;;
48487;SDS011;34289;48.572;13.378;2023-04-06T04:31:58;6.50;;;4.68;;
48487;SDS011;34289;48.572;13.378;2023-04-06T04:34:25;7.57;;;5.13;;
48487;SDS011;34289;48.572;13.378;2023-04-06T04:36:51;6.72;;;4.97;;
48487;SDS011;34289;48.572;13.378;2023-04-06T04:39:17;6.28;;;4.40;;
48487;SDS011;34289;48.572;13.378;2023-04-06T04:41:43;6.85;;;5.50;;
48487;SDS011;34289;48.572;13.378;2023-04-06T04:44:09;6.65;;;4.68;;
48487;SDS011;34289;48.572;13.378;2023-04-06T04:46:35;6.95;;;5.25;;
48487;SDS011;34289;48.572;13.378;2023-04-06T04:49:01;8.68;;;4.80;;
48487;SDS011;34289;48.572;13.378;2023-04-06T04:51:27;8.50;;;4.93;;
48487;SDS011;34289;48.572;13.378;2023-04-06T04:53:53;7.05;;;4.60;;
48487;SDS011;34289;48.572;13.378;2023-04-06T04:56:19;7.05;;;5.32;;
48487;SDS011;34289;48.572;13.378;2023-04-06T04:58:45;8.40;;;5.45;;
48487;SDS011;34289;48.572;13.378;2023-04-06T05:01:11;6.78;;;5.10;;
48487;SDS011;34289;48.572;13.378;2023-04-06T05:03:37;5.68;;;4.95;;
48487;SDS011;34289;48.572;13.378;2023-04-06T05:06:04;7.70;;;4.65;;
48487;SDS011;34289;48.572;13.378;2023-04-06T05:08:30;4.75;;;4.15;;
48487;SDS011;34289;48.572;13.378;2023-04-06T05:10:56;8.13;;;5.03;;
48487;SDS011;34289;48.572;13.378;2023-04-06T05:13:22;6.05;;;4.43;;
48487;SDS011;34289;48.572;13.378;2023-04-06T05:15:48;7.40;;;5.05;;
48487;SDS011;34289;48.572;13.378;2023-04-06T05:18:14;5.32;;;4.07;;
48487;SDS011;34289;48.572;13.378;2023-04-06T05:20:41;8.35;;;4.50;;
48487;SDS011;34289;48.572;13.378;2023-04-06T05:23:07;6.80;;;4.45;;
48487;SDS011;34289;48.572;13.378;2023-04-06T05:25:34;6.22;;;5.28;;
48487;SDS011;34289;48.572;13.378;2023-04-06T05:28:00;7.18;;;4.88;;
48487;SDS011;34289;48.572;13.378;2023-04-06T05:30:26;7.03;;;4.35;;
48487;SDS011;34289;48.572;13.378;2023-04-06T05:32:52;5.93;;;3.80;;
48487;SDS011;34289;48.572;13.378;2023-04-06T05:35:18;8.30;;;5.03;;
48487;SDS011;34289;48.572;13.378;2023-04-06T05:37:45;7.57;;;4.88;;
48487;SDS011;34289;48.572;13.378;2023-04-06T05:40:10;6.28;;;4.75;;
48487;SDS011;34289;48.572;13.378;2023-04-06T05:42:40;7.60;;;4.68;;
48487;SDS011;34289;48.572;13.378;2023-04-06T05:45:07;6.03;;;4.20;;
48487;SDS011;34289;48.572;13.378;2023-04-06T05:47:34;6.90;;;4.95;;
48487;SDS011;34289;48.572;13.378;2023-04-06T05:50:00;6.43;;;4.25;;
48487;SDS011;34289;48.572;13.378;2023-04-06T05:52:26;10.10;;;5.68;;
48487;SDS011;34289;48.572;13.378;2023-04-06T05:54:52;7.75;;;4.85;;
48487;SDS011;34289;48.572;13.378;2023-04-06T05:57:18;9.43;;;5.40;;
48487;SDS011;34289;48.572;13.378;2023-04-06T05:59:44;7.75;;;4.93;;
48487;SDS011;34289;48.572;13.378;2023-04-06T06:02:10;5.20;;;4.70;;
48487;SDS011;34289;48.572;13.378;2023-04-06T06:04:36;7.05;;;4.85;;
48487;SDS011;34289;48.572;13.378;2023-04-06T06:07:02;7.90;;;5.18;;
48487;SDS011;34289;48.572;13.378;2023-04-06T06:09:28;6.28;;;5.18;;
48487;SDS011;34289;48.572;13.378;2023-04-06T06:11:55;7.47;;;5.28;;
48487;SDS011;34289;48.572;13.378;2023-04-06T06:14:20;7.03;;;5.50;;
48487;SDS011;34289;48.572;13.378;2023-04-06T06:16:49;9.65;;;5.45;;
48487;SDS011;34289;48.572;13.378;2023-04-06T06:19:15;8.55;;;5.72;;
48487;SDS011;34289;48.572;13.378;2023-04-06T06:21:40;11.52;;;6.13;;
48487;SDS011;34289;48.572;13.378;2023-04-06T06:24:06;7.63;;;4.55;;
48487;SDS011;34289;48.572;13.378;2023-04-06T06:26:32;10.43;;;5.72;;
48487;SDS011;34289;48.572;13.378;2023-04-06T06:29:00;6.32;;;4.30;;
48487;SDS011;34289;48.572;13.378;2023-04-06T06:31:26;7.18;;;4.63;;
48487;SDS011;34289;48.572;13.378;2023-04-06T06:33:51;10.52;;;5.78;;
48487;SDS011;34289;48.572;13.378;2023-04-06T06:36:17;7.88;;;4.78;;
48487;SDS011;34289;48.572;13.378;2023-04-06T06:38:43;8.50;;;5.20;;
48487;SDS011;34289;48.572;13.378;2023-04-06T06:41:10;7.03;;;4.78;;
48487;SDS011;34289;48.572;13.378;2023-04-06T06:43:36;6.82;;;4.90;;
48487;SDS011;34289;48.572;13.378;2023-04-06T06:46:02;7.32;;;4.85;;
48487;SDS011;34289;48.572;13.378;2023-04-06T06:48:28;8.43;;;5.10;;
48487;SDS011;34289;48.572;13.378;2023-04-06T06:50:54;8.32;;;4.75;;
48487;SDS011;34289;48.572;13.378;2023-04-06T06:53:20;8.52;;;5.10;;
48487;SDS011;34289;48.572;13.378;2023-04-06T06:55:46;9.80;;;5.45;;
48487;SDS011;34289;48.572;13.378;2023-04-06T06:58:13;8.82;;;5.32;;
48487;SDS011;34289;48.572;13.378;2023-04-06T07:00:40;8.57;;;5.30;;
48487;SDS011;34289;48.572;13.378;2023-04-06T07:03:05;7.82;;;5.05;;
48487;SDS011;34289;48.572;13.378;2023-04-06T07:05:31;7.72;;;5.00;;
48487;SDS011;34289;48.572;13.378;2023-04-06T07:07:57;7.43;;;4.88;;
48487;SDS011;34289;48.572;13.378;2023-04-06T07:10:23;7.63;;;5.20;;
48487;SDS011;34289;48.572;13.378;2023-04-06T07:12:50;5.18;;;4.28;;
48487;SDS011;34289;48.572;13.378;2023-04-06T07:15:16;6.80;;;5.10;;
48487;SDS011;34289;48.572;13.378;2023-04-06T07:17:42;5.72;;;4.03;;
48487;SDS011;34289;48.572;13.378;2023-04-06T07:20:10;10.02;;;5.32;;
48487;SDS011;34289;48.572;13.378;2023-04-06T07:22:37;7.50;;;4.78;;
48487;SDS011;34289;48.572;13.378;2023-04-06T07:25:03;8.18;;;4.70;;
48487;SDS011;34289;48.572;13.378;2023-04-06T07:27:29;7.63;;;5.38;;
48487;SDS011;34289;48.572;13.378;2023-04-06T07:29:55;9.18;;;5.60;;
48487;SDS011;34289;48.572;13.378;2023-04-06T07:32:21;9.02;;;5.20;;
48487;SDS011;34289;48.572;13.378;2023-04-06T07:34:46;7.97;;;4.90;;
48487;SDS011;34289;48.572;13.378;2023-04-06T07:37:12;7.10;;;5.05;;
48487;SDS011;34289;48.572;13.378;2023-04-06T07:39:38;8.75;;;4.70;;
48487;SDS011;34289;48.572;13.378;2023-04-06T07:42:05;7.63;;;4.10;;
48487;SDS011;34289;48.572;13.378;2023-04-06T07:44:31;7.85;;;5.43;;
48487;SDS011;34289;48.572;13.378;2023-04-06T07:46:57;9.20;;;4.10;;
48487;SDS011;34289;48.572;13.378;2023-04-06T07:49:23;6.35;;;4.10;;
48487;SDS011;34289;48.572;13.378;2023-04-06T07:51:49;7.30;;;4.43;;
48487;SDS011;34289;48.572;13.378;2023-04-06T07:54:15;4.75;;;4.03;;
48487;SDS011;34289;48.572;13.378;2023-04-06T07:56:41;6.13;;;3.63;;
48487;SDS011;34289;48.572;13.378;2023-04-06T07:59:07;5.82;;;3.80;;
48487;SDS011;34289;48.572;13.378;2023-04-06T08:01:33;7.45;;;4.15;;
48487;SDS011;34289;48.572;13.378;2023-04-06T08:03:59;6.70;;;3.60;;
48487;SDS011;34289;48.572;13.378;2023-04-06T08:06:27;6.38;;;4.13;;
48487;SDS011;34289;48.572;13.378;2023-04-06T08:08:53;5.18;;;3.65;;
48487;SDS011;34289;48.572;13.378;2023-04-06T08:11:20;7.32;;;3.80;;
48487;SDS011;34289;48.572;13.378;2023-04-06T08:13:46;7.13;;;4.10;;
48487;SDS011;34289;48.572;13.378;2023-04-06T08:16:12;12.05;;;3.95;;
48487;SDS011;34289;48.572;13.378;2023-04-06T08:18:38;7.10;;;4.07;;
48487;SDS011;34289;48.572;13.378;2023-04-06T08:21:04;6.63;;;3.95;;
48487;SDS011;34289;48.572;13.378;2023-04-06T08:23:30;6.18;;;4.30;;
48487;SDS011;34289;48.572;13.378;2023-04-06T08:25:56;8.90;;;5.25;;
48487;SDS011;34289;48.572;13.378;2023-04-06T08:28:21;6.75;;;3.70;;
48487;SDS011;34289;48.572;13.378;2023-04-06T08:30:47;7.57;;;3.88;;
48487;SDS011;34289;48.572;13.378;2023-04-06T08:33:13;6.45;;;3.53;;
48487;SDS011;34289;48.572;13.378;2023-04-06T08:35:38;4.97;;;3.88;;
48487;SDS011;34289;48.572;13.378;2023-04-06T08:38:05;6.60;;;3.80;;
48487;SDS011;34289;48.572;13.378;2023-04-06T08:40:35;5.88;;;3.55;;
48487;SDS011;34289;48.572;13.378;2023-04-06T08:43:02;5.88;;;3.75;;
48487;SDS011;34289;48.572;13.378;2023-04-06T08:45:33;5.47;;;3.75;;
48487;SDS011;34289;48.572;13.378;2023-04-06T08:47:59;9.18;;;3.85;;
48487;SDS011;34289;48.572;13.378;2023-04-06T08:50:27;8.30;;;4.53;;
48487;SDS011;34289;48.572;13.378;2023-04-06T08:52:55;5.88;;;4.20;;
48487;SDS011;34289;48.572;13.378;2023-04-06T08:55:21;8.98;;;4.30;;
48487;SDS011;34289;48.572;13.378;2023-04-06T08:57:47;8.38;;;4.03;;
48487;SDS011;34289;48.572;13.378;2023-04-06T09:00:14;7.93;;;4.70;;
48487;SDS011;34289;48.572;13.378;2023-04-06T09:02:42;8.55;;;4.40;;
48487;SDS011;34289;48.572;13.378;2023-04-06T09:05:10;6.50;;;3.45;;
48487;SDS011;34289;48.572;13.378;2023-04-06T09:07:36;10.20;;;4.57;;
48487;SDS011;34289;48.572;13.378;2023-04-06T09:10:04;6.57;;;4.50;;
48487;SDS011;34289;48.572;13.378;2023-04-06T09:12:30;6.18;;;3.90;;
48487;SDS011;34289;48.572;13.378;2023-04-06T09:14:57;6.47;;;4.28;;
48487;SDS011;34289;48.572;13.378;2023-04-06T09:17:28;7.50;;;3.90;;
48487;SDS011;34289;48.572;13.378;2023-04-06T09:19:55;7.57;;;4.28;;
48487;SDS011;34289;48.572;13.378;2023-04-06T09:22:21;8.45;;;3.97;;
48487;SDS011;34289;48.572;13.378;2023-04-06T09:24:50;10.68;;;4.05;;
48487;SDS011;34289;48.572;13.378;2023-04-06T09:27:17;6.20;;;3.60;;
48487;SDS011;34289;48.572;13.378;2023-04-06T09:30:02;6.90;;;3.40;;
48487;SDS011;34289;48.572;13.378;2023-04-06T09:32:32;4.22;;;3.30;;
48487;SDS011;34289;48.572;13.378;2023-04-06T09:35:07;6.70;;;3.75;;
48487;SDS011;34289;48.572;13.378;2023-04-06T09:37:33;8.27;;;4.22;;
48487;SDS011;34289;48.572;13.378;2023-04-06T09:40:04;7.80;;;3.60;;
48487;SDS011;34289;48.572;13.378;2023-04-06T09:42:31;5.55;;;3.65;;
48487;SDS011;34289;48.572;13.378;2023-04-06T09:44:57;11.35;;;4.05;;
48487;SDS011;34289;48.572;13.378;2023-04-06T09:47:23;8.05;;;4.15;;
48487;SDS011;34289;48.572;13.378;2023-04-06T09:49:50;7.90;;;4.03;;
48487;SDS011;34289;48.572;13.378;2023-04-06T09:52:26;6.50;;;3.58;;
48487;SDS011;34289;48.572;13.378;2023-04-06T09:54:58;5.10;;;3.65;;
48487;SDS011;34289;48.572;13.378;2023-04-06T10:00:23;4.28;;;3.63;;
48487;SDS011;34289;48.572;13.378;2023-04-06T10:08:11;5.28;;;4.13;;
48487;SDS011;34289;48.572;13.378;2023-04-06T10:10:38;5.05;;;3.30;;
48487;SDS011;34289;48.572;13.378;2023-04-06T10:13:04;4.35;;;3.80;;
48487;SDS011;34289;48.572;13.378;2023-04-06T10:15:31;6.18;;;4.30;;
48487;SDS011;34289;48.572;13.378;2023-04-06T10:17:57;6.43;;;4.22;;
48487;SDS011;34289;48.572;13.378;2023-04-06T10:20:39;7.95;;;4.82;;
48487;SDS011;34289;48.572;13.378;2023-04-06T10:25:54;9.88;;;5.05;;
48487;SDS011;34289;48.572;13.378;2023-04-06T10:28:21;5.72;;;3.50;;
48487;SDS011;34289;48.572;13.378;2023-04-06T10:30:47;4.18;;;3.63;;
48487;SDS011;34289;48.572;13.378;2023-04-06T10:33:17;5.68;;;3.83;;
48487;SDS011;34289;48.572;13.378;2023-04-06T10:35:45;4.82;;;3.53;;
48487;SDS011;34289;48.572;13.378;2023-04-06T10:38:11;7.32;;;4.78;;
48487;SDS011;34289;48.572;13.378;2023-04-06T10:40:39;5.38;;;3.95;;
48487;SDS011;34289;48.572;13.378;2023-04-06T10:43:08;4.43;;;3.40;;
48487;SDS011;34289;48.572;13.378;2023-04-06T10:45:35;6.93;;;4.07;;
48487;SDS011;34289;48.572;13.378;2023-04-06T10:48:23;7.13;;;3.50;;
48487;SDS011;34289;48.572;13.378;2023-04-06T10:50:49;8.95;;;3.90;;
48487;SDS011;34289;48.572;13.378;2023-04-06T10:53:22;7.82;;;4.25;;
48487;SDS011;34289;48.572;13.378;2023-04-06T10:55:52;4.13;;;3.65;;
48487;SDS011;34289;48.572;13.378;2023-04-06T11:00:54;6.47;;;4.10;;
48487;SDS011;34289;48.572;13.378;2023-04-06T11:03:20;6.63;;;3.65;;
48487;SDS011;34289;48.572;13.378;2023-04-06T11:05:47;4.20;;;3.40;;
48487;SDS011;34289;48.572;13.378;2023-04-06T11:08:27;4.45;;;3.30;;
48487;SDS011;34289;48.572;13.378;2023-04-06T11:11:06;4.15;;;3.67;;
48487;SDS011;34289;48.572;13.378;2023-04-06T11:13:48;6.28;;;3.15;;
48487;SDS011;34289;48.572;13.378;2023-04-06T11:16:25;4.70;;;3.50;;
48487;SDS011;34289;48.572;13.378;2023-04-06T11:18:56;4.80;;;3.25;;
48487;SDS011;34289;48.572;13.378;2023-04-06T11:24:15;6.45;;;3.20;;
48487;SDS011;34289;48.572;13.378;2023-04-06T11:26:49;5.78;;;3.55;;
48487;SDS011;34289;48.572;13.378;2023-04-06T11:29:25;4.95;;;3.50;;
48487;SDS011;34289;48.572;13.378;2023-04-06T11:32:38;4.35;;;3.53;;
48487;SDS011;34289;48.572;13.378;2023-04-06T11:34:45;3.83;;;2.97;;
48487;SDS011;34289;48.572;13.378;2023-04-06T11:37:12;5.50;;;3.53;;
48487;SDS011;34289;48.572;13.378;2023-04-06T11:39:39;6.25;;;3.58;;
48487;SDS011;34289;48.572;13.378;2023-04-06T11:42:25;6.30;;;3.17;;
48487;SDS011;34289;48.572;13.378;2023-04-06T11:44:55;7.00;;;4.13;;
48487;SDS011;34289;48.572;13.378;2023-04-06T11:47:37;6.88;;;3.90;;
48487;SDS011;34289;48.572;13.378;2023-04-06T11:50:13;6.05;;;3.72;;
48487;SDS011;34289;48.572;13.378;2023-04-06T11:52:42;3.40;;;3.08;;
48487;SDS011;34289;48.572;13.378;2023-04-06T11:55:14;4.05;;;3.00;;
48487;SDS011;34289;48.572;13.378;2023-04-06T11:57:42;3.05;;;2.75;;
48487;SDS011;34289;48.572;13.378;2023-04-06T12:00:09;4.43;;;2.95;;
48487;SDS011;34289;48.572;13.378;2023-04-06T12:02:36;5.00;;;3.45;;
48487;SDS011;34289;48.572;13.378;2023-04-06T12:05:02;6.22;;;3.47;;
48487;SDS011;34289;48.572;13.378;2023-04-06T12:07:30;6.47;;;3.83;;
48487;SDS011;34289;48.572;13.378;2023-04-06T12:09:56;6.93;;;3.20;;
48487;SDS011;34289;48.572;13.378;2023-04-06T12:12:22;3.65;;;2.80;;
48487;SDS011;34289;48.572;13.378;2023-04-06T12:14:48;5.65;;;3.10;;
48487;SDS011;34289;48.572;13.378;2023-04-06T12:17:14;6.25;;;3.67;;
48487;SDS011;34289;48.572;13.378;2023-04-06T12:19:40;4.65;;;3.08;;
48487;SDS011;34289;48.572;13.378;2023-04-06T12:22:06;4.35;;;2.70;;
48487;SDS011;34289;48.572;13.378;2023-04-06T12:24:32;4.88;;;3.20;;
48487;SDS011;34289;48.572;13.378;2023-04-06T12:26:58;7.00;;;3.75;;
48487;SDS011;34289;48.572;13.378;2023-04-06T12:29:24;6.32;;;4.13;;
48487;SDS011;34289;48.572;13.378;2023-04-06T12:31:50;3.08;;;2.53;;
48487;SDS011;34289;48.572;13.378;2023-04-06T12:34:17;5.05;;;2.90;;
48487;SDS011;34289;48.572;13.378;2023-04-06T12:36:43;7.60;;;3.20;;
48487;SDS011;34289;48.572;13.378;2023-04-06T12:39:09;4.07;;;3.08;;
48487;SDS011;34289;48.572;13.378;2023-04-06T12:41:36;4.65;;;3.35;;
48487;SDS011;34289;48.572;13.378;2023-04-06T12:44:05;4.82;;;3.28;;
48487;SDS011;34289;48.572;13.378;2023-04-06T12:46:31;6.70;;;4.55;;
48487;SDS011;34289;48.572;13.378;2023-04-06T12:48:57;5.25;;;3.20;;
48487;SDS011;34289;48.572;13.378;2023-04-06T12:51:24;8.70;;;5.07;;
48487;SDS011;34289;48.572;13.378;2023-04-06T12:53:50;4.10;;;2.80;;
48487;SDS011;34289;48.572;13.378;2023-04-06T12:56:16;3.45;;;2.65;;
48487;SDS011;34289;48.572;13.378;2023-04-06T12:58:43;5.40;;;3.42;;
48487;SDS011;34289;48.572;13.378;2023-04-06T13:01:09;3.30;;;2.28;;
48487;SDS011;34289;48.572;13.378;2023-04-06T13:03:37;3.85;;;2.83;;
48487;SDS011;34289;48.572;13.378;2023-04-06T13:06:03;7.10;;;3.78;;
48487;SDS011;34289;48.572;13.378;2023-04-06T13:08:29;9.48;;;4.47;;
48487;SDS011;34289;48.572;13.378;2023-04-06T13:10:55;5.95;;;3.55;;
48487;SDS011;34289;48.572;13.378;2023-04-06T13:13:28;8.57;;;4.18;;
48487;SDS011;34289;48.572;13.378;2023-04-06T13:15:55;9.60;;;4.60;;
48487;SDS011;34289;48.572;13.378;2023-04-06T13:18:29;5.38;;;3.33;;
48487;SDS011;34289;48.572;13.378;2023-04-06T13:20:56;8.30;;;3.20;;
48487;SDS011;34289;48.572;13.378;2023-04-06T13:23:22;4.15;;;3.22;;
48487;SDS011;34289;48.572;13.378;2023-04-06T13:25:56;3.60;;;2.45;;
48487;SDS011;34289;48.572;13.378;2023-04-06T13:28:30;3.40;;;2.70;;
48487;SDS011;34289;48.572;13.378;2023-04-06T13:30:57;7.00;;;3.45;;
48487;SDS011;34289;48.572;13.378;2023-04-06T13:33:24;2.58;;;2.13;;
48487;SDS011;34289;48.572;13.378;2023-04-06T13:35:51;4.95;;;3.30;;
48487;SDS011;34289;48.572;13.378;2023-04-06T13:38:17;3.80;;;2.67;;
48487;SDS011;34289;48.572;13.378;2023-04-06T13:40:43;7.43;;;3.22;;
48487;SDS011;34289;48.572;13.378;2023-04-06T13:43:09;4.40;;;3.45;;
48487;SDS011;34289;48.572;13.378;2023-04-06T13:45:35;4.85;;;3.20;;
48487;SDS011;34289;48.572;13.378;2023-04-06T13:48:02;5.13;;;3.20;;
48487;SDS011;34289;48.572;13.378;2023-04-06T13:50:27;4.60;;;2.60;;
48487;SDS011;34289;48.572;13.378;2023-04-06T13:52:53;5.82;;;2.38;;
48487;SDS011;34289;48.572;13.378;2023-04-06T13:55:19;3.90;;;2.72;;
48487;SDS011;34289;48.572;13.378;2023-04-06T13:57:45;4.32;;;3.03;;
48487;SDS011;34289;48.572;13.378;2023-04-06T14:00:11;4.65;;;3.10;;
48487;SDS011;34289;48.572;13.378;2023-04-06T14:02:38;3.97;;;2.92;;
48487;SDS011;34289;48.572;13.378;2023-04-06T14:05:06;9.05;;;3.40;;
48487;SDS011;34289;48.572;13.378;2023-04-06T14:07:32;6.22;;;3.22;;
48487;SDS011;34289;48.572;13.378;2023-04-06T14:09:58;4.32;;;3.10;;
48487;SDS011;34289;48.572;13.378;2023-04-06T14:12:23;3.28;;;2.80;;
48487;SDS011;34289;48.572;13.378;2023-04-06T14:14:49;4.22;;;2.80;;
48487;SDS011;34289;48.572;13.378;2023-04-06T14:17:15;6.28;;;3.20;;
48487;SDS011;34289;48.572;13.378;2023-04-06T14:19:41;4.10;;;3.00;;
48487;SDS011;34289;48.572;13.378;2023-04-06T14:22:07;8.55;;;3.58;;
48487;SDS011;34289;48.572;13.378;2023-04-06T14:24:33;3.90;;;3.47;;
48487;SDS011;34289;48.572;13.378;2023-04-06T14:27:00;8.10;;;3.42;;
48487;SDS011;34289;48.572;13.378;2023-04-06T14:29:27;4.60;;;2.78;;
48487;SDS011;34289;48.572;13.378;2023-04-06T14:31:52;5.68;;;2.63;;
48487;SDS011;34289;48.572;13.378;2023-04-06T14:34:24;4.45;;;3.25;;
48487;SDS011;34289;48.572;13.378;2023-04-06T14:36:50;4.43;;;3.35;;
48487;SDS011;34289;48.572;13.378;2023-04-06T14:39:16;3.65;;;2.85;;
48487;SDS011;34289;48.572;13.378;2023-04-06T14:41:42;4.15;;;2.92;;
48487;SDS011;34289;48.572;13.378;2023-04-06T14:44:07;6.95;;;3.63;;
48487;SDS011;34289;48.572;13.378;2023-04-06T14:46:36;4.20;;;2.88;;
48487;SDS011;34289;48.572;13.378;2023-04-06T14:49:02;4.35;;;3.25;;